createdAt,value
2022-08-28T00:01:33.545Z,16.50
2022-08-28T00:04:02.714Z,16.49
2022-08-28T00:06:29.824Z,16.43
2022-08-28T00:09:00.376Z,16.42
2022-08-28T00:11:27.340Z,16.36
2022-08-28T00:14:02.378Z,16.33
2022-08-28T00:16:33.243Z,16.31
2022-08-28T00:19:03.402Z,16.30
2022-08-28T00:21:34.487Z,16.24
2022-08-28T00:24:02.961Z,16.25
2022-08-28T00:26:48.408Z,16.19
2022-08-28T00:29:22.519Z,16.23
2022-08-28T00:31:55.691Z,16.21
2022-08-28T00:34:32.968Z,16.15
2022-08-28T00:37:03.315Z,16.16
2022-08-28T00:39:36.399Z,16.15
2022-08-28T00:42:03.416Z,16.14
2022-08-28T00:44:30.415Z,16.12
2022-08-28T00:46:59.173Z,16.08
2022-08-28T00:49:33.879Z,16.13
2022-08-28T00:52:12.799Z,16.10
2022-08-28T00:55:08.672Z,16.12
2022-08-28T00:57:49.373Z,16.10
2022-08-28T01:00:31.566Z,16.06
2022-08-28T01:03:06.213Z,16.08
2022-08-28T01:05:48.830Z,16.06
2022-08-28T01:08:23.016Z,16.04
2022-08-28T01:11:00.990Z,16.00
2022-08-28T01:13:34.945Z,16.00
2022-08-28T01:16:09.693Z,15.97
2022-08-28T01:18:38.702Z,15.97
2022-08-28T01:21:20.462Z,15.94
2022-08-28T01:24:05.677Z,15.96
2022-08-28T01:26:32.810Z,15.92
2022-08-28T01:29:17.633Z,15.96
2022-08-28T01:31:44.842Z,15.90
2022-08-28T01:34:21.340Z,15.87
2022-08-28T01:36:58.481Z,15.90
2022-08-28T01:39:32.881Z,15.88
2022-08-28T01:42:03.805Z,15.85
2022-08-28T01:44:55.415Z,15.79
2022-08-28T01:47:24.460Z,15.78
2022-08-28T01:49:51.750Z,15.74
2022-08-28T01:52:19.966Z,15.70
2022-08-28T01:54:59.374Z,15.61
2022-08-28T01:57:26.936Z,15.63
2022-08-28T01:59:56.994Z,15.59
2022-08-28T02:02:24.320Z,15.51
2022-08-28T02:04:54.501Z,15.55
2022-08-28T02:07:21.567Z,15.49
2022-08-28T02:09:48.920Z,15.50
2022-08-28T02:12:27.608Z,15.52
2022-08-28T02:17:42.956Z,15.49
2022-08-28T02:20:10.879Z,15.47
2022-08-28T02:22:41.000Z,15.47
2022-08-28T02:25:15.888Z,15.46
2022-08-28T02:27:50.123Z,15.46
2022-08-28T02:30:21.958Z,15.45
2022-08-28T02:32:51.886Z,15.43
2022-08-28T02:35:22.711Z,15.47
2022-08-28T02:37:51.881Z,15.38
2022-08-28T02:40:37.463Z,15.43
2022-08-28T02:43:09.098Z,15.40
2022-08-28T02:45:43.594Z,15.40
2022-08-28T02:48:17.025Z,15.42
2022-08-28T02:50:50.377Z,15.36
2022-08-28T02:53:27.397Z,15.39
2022-08-28T02:56:05.777Z,15.40
2022-08-28T02:58:45.611Z,15.37
2022-08-28T03:01:17.281Z,15.35
2022-08-28T03:03:48.057Z,15.32
2022-08-28T03:06:20.298Z,15.31
2022-08-28T03:08:54.736Z,15.29
2022-08-28T03:11:23.894Z,15.28
2022-08-28T03:13:54.447Z,15.24
2022-08-28T03:16:24.344Z,15.25
2022-08-28T03:18:55.287Z,15.20
2022-08-28T03:24:07.111Z,15.21
2022-08-28T03:26:41.539Z,15.16
2022-08-28T03:29:08.681Z,15.12
2022-08-28T03:31:36.390Z,15.14
2022-08-28T03:34:07.860Z,15.12
2022-08-28T03:36:35.146Z,15.14
2022-08-28T03:39:09.572Z,15.14
2022-08-28T03:41:39.176Z,15.07
2022-08-28T03:46:48.725Z,15.05
2022-08-28T03:49:16.324Z,14.96
2022-08-28T03:51:49.491Z,14.98
2022-08-28T03:54:20.161Z,14.88
2022-08-28T03:56:49.225Z,14.95
2022-08-28T03:59:16.620Z,14.96
2022-08-28T04:01:48.891Z,14.96
2022-08-28T04:04:16.057Z,14.89
2022-08-28T04:06:57.067Z,14.93
2022-08-28T04:09:29.161Z,14.94
2022-08-28T04:11:59.938Z,14.92
2022-08-28T04:14:28.592Z,14.90
2022-08-28T04:17:01.305Z,14.88
2022-08-28T04:19:30.334Z,14.84
2022-08-28T04:21:57.358Z,14.81
2022-08-28T04:24:24.567Z,14.74
2022-08-28T04:26:51.635Z,14.69
2022-08-28T04:29:18.592Z,14.66
2022-08-28T04:31:45.663Z,14.65
2022-08-28T04:34:13.400Z,14.62
2022-08-28T04:36:40.389Z,14.62
2022-08-28T04:39:08.794Z,14.63
2022-08-28T04:41:39.825Z,14.60
2022-08-28T04:44:07.312Z,14.62
2022-08-28T04:46:34.609Z,14.64
2022-08-28T04:49:01.607Z,14.64
2022-08-28T04:51:28.652Z,14.63
2022-08-28T04:53:56.749Z,14.66
2022-08-28T04:56:24.394Z,14.66
2022-08-28T04:58:51.424Z,14.60
2022-08-28T05:01:21.213Z,14.65
2022-08-28T05:03:52.474Z,14.65
2022-08-28T05:06:19.471Z,14.66
2022-08-28T05:08:46.462Z,14.64
2022-08-28T05:11:22.096Z,14.64
2022-08-28T05:14:01.670Z,14.61
2022-08-28T05:16:28.701Z,14.65
2022-08-28T05:19:00.368Z,14.62
2022-08-28T05:21:28.308Z,14.67
2022-08-28T05:23:57.769Z,14.65
2022-08-28T05:26:27.154Z,14.62
2022-08-28T05:28:57.208Z,14.65
2022-08-28T05:31:25.241Z,14.65
2022-08-28T05:33:52.899Z,14.64
2022-08-28T05:36:22.785Z,14.65
2022-08-28T05:38:51.468Z,14.65
2022-08-28T05:41:24.060Z,14.63
2022-08-28T05:43:51.515Z,14.61
2022-08-28T05:46:18.676Z,14.61
2022-08-28T05:48:45.833Z,14.60
2022-08-28T05:51:20.162Z,14.59
2022-08-28T05:53:50.218Z,14.58
2022-08-28T05:56:26.033Z,14.56
2022-08-28T05:58:53.034Z,14.52
2022-08-28T06:01:23.552Z,14.56
2022-08-28T06:04:18.735Z,14.55
2022-08-28T06:06:46.245Z,14.50
2022-08-28T06:09:19.840Z,14.52
2022-08-28T06:11:47.693Z,14.49
2022-08-28T06:14:18.219Z,14.50
2022-08-28T06:16:48.575Z,14.49
2022-08-28T06:19:20.561Z,14.49
2022-08-28T06:21:48.245Z,14.45
2022-08-28T06:24:15.194Z,14.48
2022-08-28T06:26:42.230Z,14.48
2022-08-28T06:29:12.707Z,14.50
2022-08-28T06:31:40.503Z,14.50
2022-08-28T06:34:09.007Z,14.52
2022-08-28T06:36:39.430Z,14.54
2022-08-28T06:39:06.755Z,14.54
2022-08-28T06:41:34.411Z,14.56
2022-08-28T06:44:01.409Z,14.57
2022-08-28T06:46:30.519Z,14.58
2022-08-28T06:48:57.502Z,14.57
2022-08-28T06:51:25.065Z,14.62
2022-08-28T06:53:52.474Z,14.62
2022-08-28T06:56:26.316Z,14.62
2022-08-28T06:58:56.171Z,14.63
2022-08-28T07:01:45.027Z,14.63
2022-08-28T07:04:14.502Z,14.64
2022-08-28T07:06:46.877Z,14.66
2022-08-28T07:09:14.245Z,14.69
2022-08-28T07:11:44.446Z,14.73
2022-08-28T07:14:11.314Z,14.75
2022-08-28T07:16:39.276Z,14.78
2022-08-28T07:19:08.084Z,14.82
2022-08-28T07:21:39.843Z,14.83
2022-08-28T07:24:08.705Z,14.88
2022-08-28T07:26:36.716Z,14.92
2022-08-28T07:29:10.220Z,14.96
2022-08-28T07:31:45.890Z,15.02
2022-08-28T07:34:13.962Z,15.06
2022-08-28T07:36:41.957Z,15.10
2022-08-28T07:39:10.890Z,15.15
2022-08-28T07:41:40.380Z,15.19
2022-08-28T07:44:27.525Z,15.26
2022-08-28T07:46:56.600Z,15.31
2022-08-28T07:49:24.736Z,15.36
2022-08-28T07:51:54.071Z,15.42
2022-08-28T07:54:22.884Z,15.47
2022-08-28T07:56:50.332Z,15.51
2022-08-28T07:59:19.254Z,15.56
2022-08-28T08:01:48.369Z,15.60
2022-08-28T08:04:16.458Z,15.69
2022-08-28T08:06:44.722Z,15.73
2022-08-28T08:09:14.661Z,15.78
2022-08-28T08:11:42.496Z,15.84
2022-08-28T08:14:10.193Z,15.85
2022-08-28T08:16:40.644Z,15.93
2022-08-28T08:19:14.059Z,15.97
2022-08-28T08:21:46.794Z,16.03
2022-08-28T08:24:20.611Z,16.02
2022-08-28T08:26:58.935Z,16.08
2022-08-28T08:29:33.193Z,16.05
2022-08-28T08:32:07.185Z,16.14
2022-08-28T08:34:36.649Z,16.15
2022-08-28T08:37:05.618Z,16.19
2022-08-28T08:39:34.218Z,16.23
2022-08-28T08:42:04.203Z,16.27
2022-08-28T08:44:36.655Z,16.32
2022-08-28T08:47:14.886Z,16.37
2022-08-28T08:50:02.471Z,16.43
2022-08-28T08:52:46.223Z,16.50
2022-08-28T08:55:15.109Z,16.51
2022-08-28T08:57:44.056Z,16.58
2022-08-28T09:00:16.037Z,16.62
2022-08-28T09:03:22.324Z,16.69
2022-08-28T09:05:58.645Z,16.74
2022-08-28T09:08:50.636Z,16.79
2022-08-28T09:11:33.414Z,16.82
2022-08-28T09:14:05.434Z,16.85
2022-08-28T09:16:38.315Z,16.90
2022-08-28T09:19:07.360Z,16.91
2022-08-28T09:21:40.475Z,16.96
2022-08-28T09:24:16.123Z,17.02
2022-08-28T09:26:52.500Z,17.06
2022-08-28T09:29:25.436Z,17.11
2022-08-28T09:31:52.445Z,17.17
2022-08-28T09:34:25.173Z,17.24
2022-08-28T09:36:54.811Z,17.31
2022-08-28T09:39:23.873Z,17.34
2022-08-28T09:42:12.236Z,17.42
2022-08-28T09:45:00.093Z,17.49
2022-08-28T09:47:36.489Z,17.53
2022-08-28T09:50:35.237Z,17.61
2022-08-28T09:53:14.326Z,17.63
2022-08-28T09:56:05.350Z,17.67
2022-08-28T09:58:43.489Z,17.69
2022-08-28T10:01:23.602Z,17.76
2022-08-28T10:03:56.048Z,17.81
2022-08-28T10:06:28.316Z,17.86
2022-08-28T10:09:12.588Z,17.92
2022-08-28T10:12:04.023Z,17.96
2022-08-28T10:14:53.700Z,18.02
2022-08-28T10:17:45.533Z,18.08
2022-08-28T10:20:19.791Z,18.08
2022-08-28T10:23:17.867Z,18.16
2022-08-28T10:25:55.668Z,18.20
2022-08-28T10:28:42.420Z,18.23
2022-08-28T10:31:20.469Z,18.28
2022-08-28T10:33:56.401Z,18.32
2022-08-28T10:36:34.762Z,18.37
2022-08-28T10:39:09.223Z,18.43
2022-08-28T10:41:42.274Z,18.45
2022-08-28T10:44:15.564Z,18.50
2022-08-28T10:46:46.131Z,18.55
2022-08-28T10:49:28.564Z,18.59
2022-08-28T10:52:03.300Z,18.63
2022-08-28T10:54:53.199Z,18.68
2022-08-28T10:57:20.091Z,18.68
2022-08-28T10:59:50.813Z,18.76
2022-08-28T11:02:22.432Z,18.80
2022-08-28T11:04:49.933Z,18.82
2022-08-28T11:07:37.355Z,18.88
2022-08-28T11:10:21.988Z,18.92
2022-08-28T11:12:52.020Z,18.94
2022-08-28T11:15:40.881Z,18.99
2022-08-28T11:18:16.595Z,19.05
2022-08-28T11:21:04.070Z,19.10
2022-08-28T11:23:54.750Z,19.14
2022-08-28T11:26:50.311Z,19.15
2022-08-28T11:29:55.584Z,19.20
2022-08-28T11:32:34.591Z,19.21
2022-08-28T11:35:26.673Z,19.24
2022-08-28T11:37:57.428Z,19.26
2022-08-28T11:40:30.227Z,19.27
2022-08-28T11:43:16.206Z,19.28
2022-08-28T11:45:45.758Z,19.30
2022-08-28T11:48:22.899Z,19.33
2022-08-28T11:50:57.416Z,19.36
2022-08-28T11:53:48.038Z,19.37
2022-08-28T11:56:33.690Z,19.41
2022-08-28T11:59:10.005Z,19.40
2022-08-28T12:01:37.915Z,19.41
2022-08-28T12:04:13.002Z,19.43
2022-08-28T12:06:47.489Z,19.42
2022-08-28T12:09:26.380Z,19.43
2022-08-28T12:12:05.599Z,19.45
2022-08-28T12:14:38.611Z,19.45
2022-08-28T12:17:05.886Z,19.46
2022-08-28T12:19:52.515Z,19.47
2022-08-28T12:22:44.588Z,19.50
2022-08-28T12:25:25.153Z,19.50
2022-08-28T12:27:53.197Z,19.50
2022-08-28T12:30:36.882Z,19.52
2022-08-28T12:33:22.536Z,19.54
2022-08-28T12:35:49.981Z,19.54
2022-08-28T12:38:20.814Z,19.55
2022-08-28T12:40:52.962Z,19.57
2022-08-28T12:43:28.428Z,19.59
2022-08-28T12:46:02.675Z,19.58
2022-08-28T12:48:32.753Z,19.57
2022-08-28T12:51:13.511Z,19.57
2022-08-28T12:53:50.724Z,19.62
2022-08-28T12:56:19.771Z,19.60
2022-08-28T12:58:47.696Z,19.62
2022-08-28T13:01:16.705Z,19.63
2022-08-28T13:03:43.724Z,19.60
2022-08-28T13:06:11.217Z,19.61
2022-08-28T13:08:38.455Z,19.62
2022-08-28T13:11:05.793Z,19.65
2022-08-28T13:13:40.314Z,19.68
2022-08-28T13:16:12.795Z,19.69
2022-08-28T13:19:04.307Z,19.69
2022-08-28T13:21:58.580Z,19.74
2022-08-28T13:24:38.091Z,19.76
2022-08-28T13:27:14.324Z,19.73
2022-08-28T13:29:59.627Z,19.77
2022-08-28T13:32:30.348Z,19.75
2022-08-28T13:35:09.459Z,19.77
2022-08-28T13:37:51.392Z,19.79
2022-08-28T13:40:55.921Z,19.81
2022-08-28T13:43:11.285Z,19.82
2022-08-28T13:45:43.472Z,19.80
2022-08-28T13:48:13.337Z,19.81
2022-08-28T13:50:46.493Z,19.82
2022-08-28T13:53:15.427Z,19.80
2022-08-28T13:55:42.454Z,19.82
2022-08-28T13:58:09.499Z,19.84
2022-08-28T14:00:41.101Z,19.83
2022-08-28T14:03:26.812Z,19.86
2022-08-28T14:05:54.534Z,19.90
2022-08-28T14:08:21.978Z,19.92
2022-08-28T14:10:49.064Z,19.95
2022-08-28T14:13:17.384Z,19.93
2022-08-28T14:15:45.612Z,19.95
2022-08-28T14:18:12.587Z,19.97
2022-08-28T14:20:39.715Z,19.99
2022-08-28T14:23:06.614Z,20.02
2022-08-28T14:25:38.466Z,20.02
2022-08-28T14:28:05.526Z,20.03
2022-08-28T14:30:32.544Z,19.99
2022-08-28T14:32:59.497Z,20.05
2022-08-28T14:35:26.700Z,20.07
2022-08-28T14:37:53.743Z,20.09
2022-08-28T14:40:20.739Z,20.12
2022-08-28T14:42:47.816Z,20.13
2022-08-28T14:45:14.779Z,20.16
2022-08-28T14:47:41.715Z,20.16
2022-08-28T14:50:09.102Z,20.15
2022-08-28T14:52:36.017Z,20.20
2022-08-28T14:55:03.284Z,20.24
2022-08-28T14:57:30.287Z,20.25
2022-08-28T14:59:57.275Z,20.26
2022-08-28T15:02:24.229Z,20.29
2022-08-28T15:04:51.164Z,20.32
2022-08-28T15:07:18.249Z,20.32
2022-08-28T15:09:45.216Z,20.32
2022-08-28T15:12:12.325Z,20.34
2022-08-28T15:14:39.487Z,20.33
2022-08-28T15:17:08.340Z,20.33
2022-08-28T15:19:35.344Z,20.35
2022-08-28T15:22:04.267Z,20.37
2022-08-28T15:24:34.287Z,20.36
2022-08-28T15:27:02.069Z,20.36
2022-08-28T15:29:29.967Z,20.40
2022-08-28T15:31:58.154Z,20.40
2022-08-28T15:34:27.267Z,20.39
2022-08-28T15:36:56.278Z,20.38
2022-08-28T15:39:46.341Z,20.41
2022-08-28T15:42:14.046Z,20.40
2022-08-28T15:44:41.325Z,20.43
2022-08-28T15:47:08.646Z,20.43
2022-08-28T15:49:43.464Z,20.44
2022-08-28T15:52:13.887Z,20.44
2022-08-28T15:54:41.708Z,20.38
2022-08-28T15:57:08.620Z,20.39
2022-08-28T15:59:48.369Z,20.36
2022-08-28T16:02:20.154Z,20.39
2022-08-28T16:04:47.294Z,20.40
2022-08-28T16:07:14.465Z,20.39
2022-08-28T16:09:41.428Z,20.43
2022-08-28T16:12:08.421Z,20.42
2022-08-28T16:14:36.513Z,20.43
2022-08-28T16:17:05.969Z,20.38
2022-08-28T16:19:42.218Z,20.41
2022-08-28T16:22:10.565Z,20.40
2022-08-28T16:24:37.815Z,20.38
2022-08-28T16:27:07.900Z,20.37
2022-08-28T16:29:38.235Z,20.35
2022-08-28T16:32:06.600Z,20.39
2022-08-28T16:34:34.928Z,20.37
2022-08-28T16:37:03.914Z,20.38
2022-08-28T16:39:30.914Z,20.37
2022-08-28T16:41:58.442Z,20.36
2022-08-28T16:44:28.844Z,20.33
2022-08-28T16:46:56.354Z,20.32
2022-08-28T16:49:29.029Z,20.31
2022-08-28T16:51:56.164Z,20.26
2022-08-28T16:54:23.617Z,20.25
2022-08-28T16:56:50.875Z,20.23
2022-08-28T16:59:18.292Z,20.24
2022-08-28T17:01:45.622Z,20.22
2022-08-28T17:04:20.516Z,20.21
2022-08-28T17:06:47.591Z,20.19
2022-08-28T17:09:14.666Z,20.19
2022-08-28T17:11:41.641Z,20.20
2022-08-28T17:14:11.058Z,20.17
2022-08-28T17:16:38.538Z,20.12
2022-08-28T17:19:05.588Z,20.10
2022-08-28T17:21:51.214Z,20.07
2022-08-28T17:24:18.277Z,20.03
2022-08-28T17:26:45.265Z,19.97
2022-08-28T17:29:12.474Z,19.95
2022-08-28T17:31:39.614Z,19.91
2022-08-28T17:34:07.475Z,19.88
2022-08-28T17:36:35.955Z,19.86
2022-08-28T17:39:04.716Z,19.85
2022-08-28T17:41:33.449Z,19.84
2022-08-28T17:44:01.647Z,19.81
2022-08-28T17:46:30.936Z,19.78
2022-08-28T17:49:00.789Z,19.74
2022-08-28T17:51:42.115Z,19.71
2022-08-28T17:54:12.792Z,19.68
2022-08-28T17:56:40.254Z,19.62
2022-08-28T17:59:07.776Z,19.59
2022-08-28T18:01:34.911Z,19.52
2022-08-28T18:04:02.017Z,19.48
2022-08-28T18:06:28.973Z,19.41
2022-08-28T18:08:55.895Z,19.39
2022-08-28T18:11:23.548Z,19.37
2022-08-28T18:13:50.670Z,19.32
2022-08-28T18:16:17.714Z,19.24
2022-08-28T18:18:45.175Z,19.26
2022-08-28T18:21:14.003Z,19.24
2022-08-28T18:23:41.273Z,19.20
2022-08-28T18:26:09.455Z,19.17
2022-08-28T18:28:37.149Z,19.13
2022-08-28T18:31:07.907Z,19.10
2022-08-28T18:33:37.193Z,19.05
2022-08-28T18:36:08.532Z,19.00
2022-08-28T18:38:35.815Z,18.96
2022-08-28T18:41:04.295Z,18.95
2022-08-28T18:43:31.569Z,18.88
2022-08-28T18:46:02.999Z,18.87
2022-08-28T18:48:31.564Z,18.83
2022-08-28T18:50:58.572Z,18.78
2022-08-28T18:53:26.427Z,18.73
2022-08-28T18:55:58.193Z,18.69
2022-08-28T18:58:29.825Z,18.63
2022-08-28T19:00:57.298Z,18.60
2022-08-28T19:03:24.281Z,18.58
2022-08-28T19:05:52.035Z,18.51
2022-08-28T19:08:19.057Z,18.50
2022-08-28T19:10:46.674Z,18.46
2022-08-28T19:13:13.647Z,18.41
2022-08-28T19:15:41.469Z,18.37
2022-08-28T19:18:08.597Z,18.32
2022-08-28T19:20:35.584Z,18.26
2022-08-28T19:23:02.484Z,18.20
2022-08-28T19:25:30.768Z,18.13
2022-08-28T19:27:59.579Z,18.04
2022-08-28T19:30:29.277Z,18.01
2022-08-28T19:32:56.224Z,17.95
2022-08-28T19:35:24.412Z,17.90
2022-08-28T19:37:52.777Z,17.89
2022-08-28T19:40:20.912Z,17.85
2022-08-28T19:42:49.962Z,17.83
2022-08-28T19:45:18.008Z,17.80
2022-08-28T19:47:45.741Z,17.78
2022-08-28T19:50:14.597Z,17.76
2022-08-28T19:52:43.520Z,17.70
2022-08-28T19:55:25.848Z,17.65
2022-08-28T19:57:53.387Z,17.59
2022-08-28T20:00:29.301Z,17.55
2022-08-28T20:02:56.369Z,17.51
2022-08-28T20:05:23.669Z,17.42
2022-08-28T20:07:51.289Z,17.37
2022-08-28T20:10:18.918Z,17.34
2022-08-28T20:12:48.183Z,17.30
2022-08-28T20:15:17.829Z,17.26
2022-08-28T20:17:49.990Z,17.23
2022-08-28T20:20:19.976Z,17.19
2022-08-28T20:22:46.955Z,17.15
2022-08-28T20:25:15.765Z,17.11
2022-08-28T20:27:42.709Z,17.10
2022-08-28T20:30:11.054Z,17.10
2022-08-28T20:32:40.166Z,17.06
2022-08-28T20:35:13.503Z,17.02
2022-08-28T20:37:44.818Z,16.98
2022-08-28T20:40:18.858Z,16.95
2022-08-28T20:42:59.422Z,16.97
2022-08-28T20:45:30.642Z,16.94
2022-08-28T20:47:58.027Z,16.87
2022-08-28T20:50:27.612Z,16.86
2022-08-28T20:52:56.166Z,16.82
2022-08-28T20:55:23.211Z,16.75
2022-08-28T20:57:50.388Z,16.71
2022-08-28T21:00:18.013Z,16.71
2022-08-28T21:02:45.475Z,16.63
2022-08-28T21:05:13.915Z,16.58
2022-08-28T21:07:43.100Z,16.60
2022-08-28T21:10:10.421Z,16.50
2022-08-28T21:12:40.254Z,16.48
2022-08-28T21:15:14.982Z,16.50
2022-08-28T21:17:42.570Z,16.44
2022-08-28T21:20:15.512Z,16.45
2022-08-28T21:22:44.245Z,16.44
2022-08-28T21:25:12.424Z,16.42
2022-08-28T21:27:39.384Z,16.41
2022-08-28T21:30:08.613Z,16.41
2022-08-28T21:32:39.923Z,16.39
2022-08-28T21:35:14.802Z,16.36
2022-08-28T21:37:42.191Z,16.32
2022-08-28T21:40:19.896Z,16.32
2022-08-28T21:42:46.870Z,16.28
2022-08-28T21:45:14.453Z,16.27
2022-08-28T21:47:45.620Z,16.23
2022-08-28T21:50:12.722Z,16.20
2022-08-28T21:52:48.030Z,16.20
2022-08-28T21:57:57.438Z,16.08
2022-08-28T22:00:27.052Z,16.06
2022-08-28T22:02:56.648Z,16.06
2022-08-28T22:05:23.840Z,16.03
2022-08-28T22:08:00.063Z,16.02
2022-08-28T22:10:28.896Z,15.98
2022-08-28T22:12:56.611Z,15.96
2022-08-28T22:15:29.100Z,15.91
2022-08-28T22:17:59.838Z,15.91
2022-08-28T22:20:31.004Z,15.87
2022-08-28T22:23:14.136Z,15.79
2022-08-28T22:25:49.724Z,15.74
2022-08-28T22:28:19.752Z,15.77
2022-08-28T22:30:57.403Z,15.71
2022-08-28T22:33:26.280Z,15.67
2022-08-28T22:35:54.494Z,15.66
2022-08-28T22:38:25.420Z,15.64
2022-08-28T22:40:59.904Z,15.64
2022-08-28T22:43:26.996Z,15.62
2022-08-28T22:45:56.199Z,15.55
2022-08-28T22:51:25.848Z,15.51
2022-08-28T22:54:00.635Z,15.49
2022-08-28T22:56:32.384Z,15.47
2022-08-28T22:59:04.495Z,15.45
2022-08-28T23:01:31.685Z,15.40
2022-08-28T23:04:17.679Z,15.34
2022-08-28T23:06:47.245Z,15.33
2022-08-28T23:09:14.291Z,15.29
2022-08-28T23:11:43.799Z,15.23
2022-08-28T23:14:10.709Z,15.20
2022-08-28T23:16:49.768Z,15.12
2022-08-28T23:19:19.497Z,15.08
2022-08-28T23:21:52.343Z,15.07
2022-08-28T23:24:21.098Z,15.02
2022-08-28T23:26:52.142Z,14.98
2022-08-28T23:29:22.950Z,14.95
2022-08-28T23:31:53.866Z,14.92
2022-08-28T23:34:24.216Z,14.84
2022-08-28T23:36:56.779Z,14.83
2022-08-28T23:39:30.218Z,14.80
2022-08-28T23:42:00.466Z,14.77
2022-08-28T23:44:29.068Z,14.72
2022-08-28T23:47:03.780Z,14.68
2022-08-28T23:49:33.768Z,14.64
2022-08-28T23:52:04.144Z,14.62
2022-08-28T23:54:33.211Z,14.57
2022-08-28T23:57:08.101Z,14.55
2022-08-28T23:59:38.177Z,14.49
